Time;durP1;ratioP1;P1;durP2;ratioP2;P2;SDS_P1;SDS_P2;PMS_P1;PMS_P2;Temp;Humidity;BMP_temperature;BMP_pressure;BME280_temperature;BME280_humidity;BME280_pressure;Samples;Min_cycle;Max_cycle;Signal;HPM_P1;HPM_P2
2022/06/10 00:00:14;;;;;;;4.28;3.60;;;;;;;19.21;100.00;97387.91;5038474;28;20280;-61
2022/06/10 00:02:43;;;;;;;3.92;3.63;;;;;;;18.97;100.00;97388.16;5040873;28;20662;-61
2022/06/10 00:05:13;;;;;;;7.70;4.05;;;;;;;19.03;100.00;97390.06;5041845;28;20204;-60
2022/06/10 00:07:39;;;;;;;6.88;4.22;;;;;;;18.97;100.00;97396.03;5037272;28;20184;-60
2022/06/10 00:10:04;;;;;;;5.45;4.47;;;;;;;18.87;100.00;97398.13;5039371;28;20177;-61
2022/06/10 00:12:30;;;;;;;4.78;4.38;;;;;;;18.80;100.00;97394.59;5039004;28;20185;-60
2022/06/10 00:14:55;;;;;;;7.68;5.30;;;;;;;18.83;100.00;97399.47;5031678;28;20178;-61
2022/06/10 00:17:21;;;;;;;5.85;4.28;;;;;;;18.74;100.00;97403.19;5032217;28;20716;-60
2022/06/10 00:19:46;;;;;;;5.05;4.57;;;;;;;18.78;100.00;97407.06;5031317;28;20686;-60
2022/06/10 00:22:12;;;;;;;6.63;4.57;;;;;;;18.99;100.00;97401.91;5030823;28;20681;-61
2022/06/10 00:24:38;;;;;;;6.18;4.25;;;;;;;18.89;100.00;97411.88;5034369;28;20186;-60
2022/06/10 00:27:03;;;;;;;8.95;4.53;;;;;;;18.80;100.00;97411.13;5019880;28;20210;-61
2022/06/10 00:29:29;;;;;;;5.97;4.65;;;;;;;18.69;100.00;97405.50;5017697;28;20773;-61
2022/06/10 00:31:54;;;;;;;5.50;5.00;;;;;;;18.67;100.00;97397.03;5023487;28;20250;-60
2022/06/10 00:34:20;;;;;;;5.47;4.43;;;;;;;18.55;100.00;97395.84;5040180;28;20613;-60
2022/06/10 00:36:45;;;;;;;7.38;5.53;;;;;;;18.58;100.00;97393.69;5038630;28;20359;-60
2022/06/10 00:39:11;;;;;;;8.35;4.93;;;;;;;18.60;100.00;97388.25;5035168;28;20678;-60
2022/06/10 00:41:44;;;;;;;5.28;4.78;;;;;;;18.55;100.00;97382.75;5040403;28;20178;-60
2022/06/10 00:44:33;;;;;;;7.00;5.15;;;;;;;18.89;100.00;97388.28;5039266;28;20176;-60
2022/06/10 00:47:00;;;;;;;6.43;4.60;;;;;;;19.07;100.00;97388.72;5039173;28;20179;-59
2022/06/10 00:49:26;;;;;;;5.20;4.70;;;;;;;18.95;100.00;97383.09;5036349;28;20268;-61
2022/06/10 00:51:54;;;;;;;5.97;4.80;;;;;;;18.87;100.00;97387.63;5038449;28;20603;-59
2022/06/10 00:54:37;;;;;;;5.05;4.55;;;;;;;18.84;100.00;97383.56;5038854;28;20189;-60
2022/06/10 00:57:14;;;;;;;5.25;4.85;;;;;;;18.88;100.00;97378.78;5039729;28;20205;-59
2022/06/10 00:59:48;;;;;;;5.43;4.80;;;;;;;18.91;100.00;97371.38;5039657;28;20271;-59
2022/06/10 01:02:22;;;;;;;5.95;4.97;;;;;;;18.73;100.00;97377.97;5036459;28;20251;-60
2022/06/10 01:04:48;;;;;;;5.70;5.20;;;;;;;18.90;100.00;97385.47;5034053;28;20268;-60
2022/06/10 01:07:19;;;;;;;8.25;6.15;;;;;;;18.92;100.00;97388.72;5044994;28;20263;-59
2022/06/10 01:09:47;;;;;;;6.50;5.95;;;;;;;18.74;100.00;97385.66;5015984;28;20189;-59
2022/06/10 01:12:22;;;;;;;6.28;5.78;;;;;;;18.60;100.00;97386.44;5017755;28;20886;-60
2022/06/10 01:15:12;;;;;;;7.07;5.75;;;;;;;18.53;100.00;97392.59;5027869;28;20310;-59
2022/06/10 01:17:49;;;;;;;6.00;5.43;;;;;;;18.65;100.00;97396.41;5033511;28;20208;-59
2022/06/10 01:20:31;;;;;;;8.70;5.40;;;;;;;18.68;100.00;97394.25;5031150;28;20556;-60
2022/06/10 01:23:28;;;;;;;7.93;5.20;;;;;;;18.59;100.00;97394.50;5015512;28;20789;-59
2022/06/10 01:26:18;;;;;;;7.57;5.22;;;;;;;18.66;100.00;97400.66;5042476;28;20613;-59
2022/06/10 01:29:02;;;;;;;6.18;5.10;;;;;;;18.74;100.00;97401.38;5028843;28;20184;-59
2022/06/10 01:31:34;;;;;;;5.30;4.80;;;;;;;18.88;100.00;97402.38;5016026;28;20177;-59
2022/06/10 01:34:11;;;;;;;5.50;4.85;;;;;;;18.98;100.00;97408.97;5017924;28;20216;-59
2022/06/10 01:37:21;;;;;;;7.35;4.20;;;;;;;18.98;100.00;97411.59;5039160;28;20251;-59
2022/06/10 01:40:25;;;;;;;5.50;4.57;;;;;;;18.68;100.00;97417.81;5026002;28;21106;-59
2022/06/10 01:43:39;;;;;;;5.22;4.82;;;;;;;18.54;100.00;97415.97;5035486;28;20181;-60
2022/06/10 01:46:04;;;;;;;4.68;4.30;;;;;;;18.52;100.00;97406.66;4988062;28;20196;-60
2022/06/10 01:48:42;;;;;;;4.32;4.00;;;;;;;18.38;100.00;97412.72;5035439;28;20692;-60
2022/06/10 01:51:17;;;;;;;4.80;4.22;;;;;;;18.42;100.00;97406.94;5033710;28;20275;-60
2022/06/10 01:53:59;;;;;;;4.20;3.90;;;;;;;18.64;100.00;97406.06;5036633;28;21227;-59
2022/06/10 01:56:24;;;;;;;4.47;3.90;;;;;;;18.75;100.00;97402.19;5041614;28;20187;-59
2022/06/10 01:59:07;;;;;;;4.78;3.70;;;;;;;18.85;100.00;97407.97;5039545;28;20209;-59
2022/06/10 02:01:39;;;;;;;4.70;3.40;;;;;;;18.72;100.00;97397.31;5044822;28;20187;-59
2022/06/10 02:04:21;;;;;;;5.15;4.07;;;;;;;18.57;100.00;97402.53;5044313;28;20174;-59
2022/06/10 02:06:57;;;;;;;5.55;4.07;;;;;;;18.51;100.00;97394.56;5034671;28;20178;-59
2022/06/10 02:09:28;;;;;;;6.47;4.00;;;;;;;18.64;100.00;97394.75;5026679;28;20178;-59
2022/06/10 02:12:06;;;;;;;3.97;3.70;;;;;;;18.84;100.00;97396.66;5021396;28;20189;-59
2022/06/10 02:14:39;;;;;;;7.25;3.38;;;;;;;18.74;100.00;97387.44;5016190;28;20253;-60
2022/06/10 02:17:07;;;;;;;3.40;3.10;;;;;;;18.85;100.00;97393.06;5021764;28;20173;-59
2022/06/10 02:19:42;;;;;;;3.22;3.00;;;;;;;19.06;100.00;97398.38;5041017;28;20270;-59
2022/06/10 02:22:12;;;;;;;3.42;3.13;;;;;;;19.17;100.00;97399.75;5037808;28;20295;-59
2022/06/10 02:24:45;;;;;;;5.18;3.17;;;;;;;19.07;100.00;97394.75;5034674;28;20188;-59
2022/06/10 02:27:17;;;;;;;3.65;3.28;;;;;;;18.94;100.00;97396.41;5035831;28;20205;-59
2022/06/10 02:29:53;;;;;;;7.00;3.33;;;;;;;19.00;100.00;97406.97;5038688;28;20770;-60
2022/06/10 02:32:19;;;;;;;5.82;2.83;;;;;;;19.00;100.00;97401.72;5026132;28;20276;-59
2022/06/10 02:34:44;;;;;;;4.65;3.30;;;;;;;18.87;100.00;97417.28;5015694;28;20267;-60
2022/06/10 02:37:26;;;;;;;3.63;2.70;;;;;;;18.71;100.00;97416.66;5017466;28;20216;-59
2022/06/10 02:40:14;;;;;;;4.53;3.60;;;;;;;18.56;100.00;97419.25;5038372;28;20177;-59
2022/06/10 02:42:50;;;;;;;3.78;3.33;;;;;;;18.29;100.00;97421.56;5037368;28;20197;-60
2022/06/10 02:45:37;;;;;;;8.48;3.78;;;;;;;18.06;100.00;97423.41;5045486;28;20177;-59
2022/06/10 02:48:09;;;;;;;3.90;3.58;;;;;;;18.07;100.00;97436.31;5041479;28;20645;-60
2022/06/10 02:50:34;;;;;;;5.70;3.85;;;;;;;17.98;100.00;97434.78;5041915;28;20564;-59
2022/06/10 02:53:03;;;;;;;4.78;3.92;;;;;;;18.09;100.00;97430.91;5029469;28;20189;-58
2022/06/10 02:55:28;;;;;;;5.22;4.07;;;;;;;17.99;100.00;97430.34;5018545;28;20177;-59
2022/06/10 03:01:11;;;;;;;5.25;4.18;;;;;;;18.22;100.00;97444.22;5037443;28;20238;-60
2022/06/10 03:04:00;;;;;;;7.78;4.35;;;;;;;18.30;100.00;97441.56;5037367;28;20183;-59
2022/06/10 03:06:54;;;;;;;6.82;4.13;;;;;;;18.30;100.00;97454.66;5042289;28;20605;-59
2022/06/10 03:09:30;;;;;;;5.15;4.53;;;;;;;18.15;100.00;97459.03;5034098;28;20178;-59
2022/06/10 03:12:07;;;;;;;5.28;4.38;;;;;;;18.14;100.00;97465.25;5035672;28;20188;-59
2022/06/10 03:15:01;;;;;;;5.35;3.95;;;;;;;18.16;100.00;97458.03;5038814;28;20184;-59
2022/06/10 03:17:27;;;;;;;8.48;3.55;;;;;;;18.07;100.00;97459.88;5037284;28;20698;-59
2022/06/10 03:20:12;;;;;;;4.40;4.00;;;;;;;18.13;100.00;97458.38;5041880;28;20218;-59
2022/06/10 03:23:10;;;;;;;4.15;3.50;;;;;;;18.06;100.00;97423.41;5045986;28;20693;-60
2022/06/10 03:25:42;;;;;;;5.25;2.90;;;;;;;18.23;100.00;97466.81;5033071;28;20602;-59
2022/06/10 03:28:13;;;;;;;3.55;3.33;;;;;;;18.27;100.00;97475.94;5036138;28;20263;-59
2022/06/10 03:31:07;;;;;;;4.80;4.38;;;;;;;18.32;100.00;97479.72;5039665;28;20181;-59
2022/06/10 03:34:02;;;;;;;8.25;4.55;;;;;;;18.31;100.00;97472.00;5041135;28;20568;-59
2022/06/10 03:36:28;;;;;;;5.72;4.72;;;;;;;18.36;100.00;97470.50;5023931;28;20831;-59
2022/06/10 03:38:54;;;;;;;5.53;4.53;;;;;;;18.43;100.00;97481.09;5019002;28;20202;-59
2022/06/10 03:41:27;;;;;;;4.47;4.07;;;;;;;18.46;100.00;97480.72;5024164;28;20209;-59
2022/06/10 03:43:55;;;;;;;4.80;4.40;;;;;;;18.58;100.00;97479.31;5042764;28;20181;-59
2022/06/10 03:46:23;;;;;;;9.75;5.22;;;;;;;18.56;100.00;97481.31;5041033;28;20278;-59
2022/06/10 03:48:51;;;;;;;4.90;4.13;;;;;;;18.45;100.00;97495.66;5035376;28;20676;-59
2022/06/10 03:51:18;;;;;;;7.70;4.43;;;;;;;18.47;100.00;97483.19;5037008;28;20215;-60
2022/06/10 03:53:46;;;;;;;8.90;5.43;;;;;;;18.53;100.00;97492.16;5039762;28;20182;-60
2022/06/10 03:56:12;;;;;;;7.00;5.53;;;;;;;18.68;100.00;97490.38;5045752;28;20184;-59
2022/06/10 03:58:40;;;;;;;6.53;5.18;;;;;;;18.80;100.00;97487.16;5036904;28;20674;-60
2022/06/10 04:01:06;;;;;;;14.52;6.95;;;;;;;18.93;100.00;97494.38;5039215;28;20185;-60
2022/06/10 04:03:32;;;;;;;13.20;7.00;;;;;;;19.07;100.00;97497.00;5044772;28;20264;-59
2022/06/10 04:05:57;;;;;;;8.80;7.15;;;;;;;19.13;100.00;97496.31;5040080;28;20638;-59
2022/06/10 04:08:23;;;;;;;11.43;7.43;;;;;;;19.24;100.00;97493.25;5037479;28;20173;-59
2022/06/10 04:10:49;;;;;;;11.73;7.65;;;;;;;19.34;100.00;97482.50;5036308;28;20256;-60
2022/06/10 04:13:17;;;;;;;13.43;9.23;;;;;;;19.44;100.00;97483.03;5043759;28;20216;-59
2022/06/10 04:15:44;;;;;;;11.48;9.07;;;;;;;19.57;100.00;97480.56;5045639;28;20319;-60
2022/06/10 04:18:10;;;;;;;19.27;9.88;;;;;;;19.66;100.00;97482.94;5036258;28;20244;-60
2022/06/10 04:20:37;;;;;;;15.57;10.90;;;;;;;19.81;100.00;97486.31;5037548;28;20617;-60
2022/06/10 04:23:04;;;;;;;16.33;10.63;;;;;;;19.93;100.00;97490.09;5038775;28;20188;-60
2022/06/10 04:25:31;;;;;;;14.00;9.30;;;;;;;20.06;100.00;97497.31;5035036;28;20180;-60
2022/06/10 04:27:57;;;;;;;17.20;9.43;;;;;;;19.98;100.00;97484.28;5037961;28;20185;-60
2022/06/10 04:30:38;;;;;;;13.27;8.90;;;;;;;19.97;100.00;97501.03;5032882;28;20239;-59
2022/06/10 04:33:05;;;;;;;12.48;8.23;;;;;;;19.90;100.00;97494.91;5031783;28;20174;-60
2022/06/10 04:35:32;;;;;;;13.00;7.95;;;;;;;19.89;100.00;97495.91;5041239;28;20645;-59
2022/06/10 04:37:58;;;;;;;8.32;6.18;;;;;;;19.98;100.00;97500.03;5034747;28;20240;-60
2022/06/10 04:40:27;;;;;;;7.88;5.88;;;;;;;19.93;100.00;97484.03;5016344;28;21365;-59
2022/06/10 04:42:53;;;;;;;10.13;5.50;;;;;;;19.93;100.00;97491.94;5018303;28;20185;-60
2022/06/10 04:45:23;;;;;;;5.68;4.53;;;;;;;19.95;100.00;97493.38;5026543;28;20282;-60
2022/06/10 04:47:48;;;;;;;5.05;4.65;;;;;;;19.90;100.00;97494.91;5030465;28;20677;-59
2022/06/10 04:50:17;;;;;;;5.90;4.68;;;;;;;19.73;100.00;97493.50;5031495;28;20181;-60
2022/06/10 04:52:43;;;;;;;6.20;4.85;;;;;;;19.82;100.00;97493.19;5039168;28;20323;-59
2022/06/10 04:55:09;;;;;;;10.75;5.72;;;;;;;19.78;100.00;97499.00;5041628;28;20185;-59
2022/06/10 04:57:36;;;;;;;8.90;5.88;;;;;;;19.85;100.00;97500.72;5042926;28;20209;-59
2022/06/10 05:00:05;;;;;;;6.60;5.35;;;;;;;19.94;100.00;97510.09;5038973;28;20181;-60
2022/06/10 05:02:30;;;;;;;6.15;5.55;;;;;;;19.78;100.00;97518.22;5036801;28;20185;-59
2022/06/10 05:04:55;;;;;;;6.00;5.18;;;;;;;19.92;100.00;97500.78;5038917;28;20957;-60
2022/06/10 05:07:21;;;;;;;5.30;4.78;;;;;;;20.12;100.00;97514.97;5036295;28;20170;-59
2022/06/10 05:09:46;;;;;;;6.85;5.38;;;;;;;20.28;100.00;97514.75;5033228;28;20546;-59
2022/06/10 05:12:12;;;;;;;7.47;5.45;;;;;;;20.43;100.00;97515.50;5038460;28;20181;-59
2022/06/10 05:14:37;;;;;;;6.03;5.43;;;;;;;20.38;100.00;97528.38;5032233;28;20181;-59
2022/06/10 05:17:04;;;;;;;10.13;5.80;;;;;;;20.40;100.00;97518.50;5041894;28;20654;-60
2022/06/10 05:19:29;;;;;;;8.63;5.43;;;;;;;20.51;100.00;97531.16;5033598;28;20600;-60
2022/06/10 05:21:56;;;;;;;11.73;6.25;;;;;;;20.61;100.00;97527.19;5017569;28;20219;-59
2022/06/10 05:24:22;;;;;;;7.97;5.05;;;;;;;20.66;100.00;97524.81;5017613;28;20185;-60
2022/06/10 05:26:47;;;;;;;6.97;5.68;;;;;;;20.80;100.00;97531.00;5024313;28;20228;-60
2022/06/10 05:29:13;;;;;;;7.30;5.50;;;;;;;20.88;100.00;97533.50;5029529;28;20260;-60
2022/06/10 05:31:38;;;;;;;10.60;7.50;;;;;;;20.79;100.00;97524.09;5041886;28;20177;-60
2022/06/10 05:36:48;;;;;;;12.73;8.23;;;;;;;20.91;100.00;97541.03;5037838;28;20212;-60
2022/06/10 05:39:13;;;;;;;21.98;11.15;;;;;;;21.01;100.00;97542.34;5032616;28;20284;-59
2022/06/10 05:44:25;;;;;;;17.15;10.95;;;;;;;21.18;100.00;97546.31;5036149;28;20285;-61
2022/06/10 05:46:52;;;;;;;21.08;13.00;;;;;;;21.20;100.00;97546.09;5037813;28;20185;-61
2022/06/10 05:49:18;;;;;;;24.95;11.75;;;;;;;21.26;100.00;97538.25;5042123;28;20181;-61
2022/06/10 05:51:44;;;;;;;18.02;13.10;;;;;;;21.16;100.00;97531.72;5036575;28;20182;-61
2022/06/10 05:54:10;;;;;;;16.80;13.70;;;;;;;20.89;100.00;97535.97;5040151;28;20212;-60
2022/06/10 05:56:35;;;;;;;17.30;13.70;;;;;;;20.93;100.00;97536.41;5034438;28;20228;-60
2022/06/10 05:59:01;;;;;;;20.15;13.82;;;;;;;20.77;100.00;97536.63;5039497;28;20222;-60
2022/06/10 06:01:26;;;;;;;17.30;13.23;;;;;;;20.75;100.00;97538.66;5035212;28;20193;-61
2022/06/10 06:03:52;;;;;;;17.90;12.57;;;;;;;20.58;100.00;97529.41;5032741;28;20927;-61
2022/06/10 06:06:19;;;;;;;21.25;13.02;;;;;;;20.73;100.00;97530.94;5036042;28;20184;-61
2022/06/10 06:08:46;;;;;;;19.75;12.15;;;;;;;20.72;100.00;97534.56;5040671;28;20205;-61
2022/06/10 06:11:12;;;;;;;17.73;12.35;;;;;;;20.85;100.00;97525.97;5037002;28;20666;-60
2022/06/10 06:13:37;;;;;;;18.35;13.57;;;;;;;21.03;100.00;97535.06;5037932;28;20283;-61
2022/06/10 06:16:04;;;;;;;14.43;12.25;;;;;;;20.90;100.00;97531.50;5034781;28;20189;-60
2022/06/10 06:18:29;;;;;;;15.20;11.65;;;;;;;20.86;100.00;97530.25;5038685;28;20209;-61
2022/06/10 06:20:55;;;;;;;16.23;12.10;;;;;;;20.83;100.00;97531.44;5036719;28;20185;-61
2022/06/10 06:23:20;;;;;;;19.38;13.18;;;;;;;20.96;100.00;97541.25;5035479;28;20681;-61
2022/06/10 06:25:45;;;;;;;21.92;13.88;;;;;;;20.80;100.00;97552.84;5039121;28;20203;-61
2022/06/10 06:28:11;;;;;;;20.98;13.90;;;;;;;20.97;100.00;97556.88;5040535;28;20208;-60
2022/06/10 06:30:37;;;;;;;20.55;13.48;;;;;;;21.15;100.00;97561.66;5033423;28;20601;-61
2022/06/10 06:33:08;;;;;;;22.15;14.70;;;;;;;21.25;100.00;97568.22;5032645;28;20219;-60
2022/06/10 06:35:36;;;;;;;19.88;13.60;;;;;;;21.29;100.00;97563.38;5035816;28;20221;-60
2022/06/10 06:38:02;;;;;;;20.90;14.48;;;;;;;21.27;100.00;97562.75;5043236;28;20210;-60
2022/06/10 06:40:28;;;;;;;18.75;15.60;;;;;;;21.22;100.00;97568.56;5038460;28;20189;-60
2022/06/10 06:42:53;;;;;;;21.38;15.90;;;;;;;21.17;100.00;97568.38;5038478;28;20242;-60
2022/06/10 06:45:21;;;;;;;18.90;15.13;;;;;;;21.17;100.00;97575.44;5023318;28;20278;-61
2022/06/10 06:47:47;;;;;;;18.90;14.70;;;;;;;21.06;100.00;97573.31;5019721;28;20185;-61
2022/06/10 06:50:16;;;;;;;17.65;15.05;;;;;;;21.07;100.00;97575.78;5021913;28;20196;-61
2022/06/10 06:52:42;;;;;;;23.10;16.48;;;;;;;21.13;100.00;97568.91;5039968;28;20182;-61
2022/06/10 06:55:09;;;;;;;21.30;16.40;;;;;;;21.17;100.00;97552.59;5045371;28;20677;-61
2022/06/10 06:57:35;;;;;;;23.17;19.30;;;;;;;21.23;100.00;97558.88;5031075;28;20252;-60
2022/06/10 07:00:06;;;;;;;28.35;20.10;;;;;;;21.31;100.00;97556.91;5045280;28;20188;-61
2022/06/10 07:02:36;;;;;;;24.73;18.98;;;;;;;21.50;100.00;97548.31;5043007;28;20696;-61
2022/06/10 07:05:05;;;;;;;29.30;20.23;;;;;;;21.68;100.00;97537.31;5042168;28;20180;-61
2022/06/10 07:07:31;;;;;;;28.80;20.83;;;;;;;21.81;100.00;97547.91;5018029;28;20201;-61
2022/06/10 07:09:56;;;;;;;28.42;21.45;;;;;;;21.65;100.00;97551.66;5019599;28;20189;-61
2022/06/10 07:12:22;;;;;;;31.73;22.75;;;;;;;21.70;100.00;97553.72;5030444;28;20193;-61
2022/06/10 07:14:49;;;;;;;30.13;23.58;;;;;;;21.66;100.00;97561.19;5036510;28;20182;-61
2022/06/10 07:17:16;;;;;;;28.73;23.40;;;;;;;21.55;100.00;97563.53;5037129;28;20219;-61
2022/06/10 07:19:41;;;;;;;29.60;24.63;;;;;;;21.58;100.00;97565.78;5037051;28;20201;-61
2022/06/10 07:22:08;;;;;;;30.92;23.52;;;;;;;21.71;100.00;97571.16;5044740;28;20186;-61
2022/06/10 07:24:34;;;;;;;30.25;23.65;;;;;;;21.83;100.00;97566.94;5038279;28;20177;-61
2022/06/10 07:27:00;;;;;;;31.90;23.65;;;;;;;21.79;100.00;97563.09;5027980;28;20259;-62
2022/06/10 07:29:28;;;;;;;29.88;23.35;;;;;;;21.66;100.00;97565.63;5018065;28;20455;-61
2022/06/10 07:31:53;;;;;;;28.52;24.13;;;;;;;21.47;100.00;97551.34;5020307;28;20177;-61
2022/06/10 07:34:20;;;;;;;30.02;22.90;;;;;;;21.68;100.00;97556.56;5037683;28;20192;-61
2022/06/10 07:36:46;;;;;;;30.63;23.80;;;;;;;21.74;100.00;97563.66;5040293;28;20212;-61
2022/06/10 07:39:12;;;;;;;30.83;22.90;;;;;;;21.86;100.00;97562.09;5036434;28;20205;-61
2022/06/10 07:44:30;;;;;;;32.63;24.02;;;;;;;22.15;100.00;97564.44;5031892;28;20192;-61
2022/06/10 07:46:59;;;;;;;31.50;23.63;;;;;;;22.16;100.00;97574.00;5038840;28;20188;-61
2022/06/10 07:49:25;;;;;;;31.15;21.67;;;;;;;22.26;100.00;97573.63;5017615;28;20667;-61
2022/06/10 07:51:51;;;;;;;26.38;21.20;;;;;;;22.31;100.00;97571.22;5017607;28;20231;-61
2022/06/10 07:54:17;;;;;;;28.05;21.73;;;;;;;22.23;100.00;97579.28;5023235;28;20186;-60
2022/06/10 07:56:43;;;;;;;30.40;22.73;;;;;;;22.08;100.00;97576.00;5040242;28;20400;-60
2022/06/10 07:59:09;;;;;;;28.35;23.10;;;;;;;22.09;100.00;97573.16;5043841;28;20201;-60
2022/06/10 08:01:34;;;;;;;28.85;22.75;;;;;;;22.20;100.00;97590.22;5037080;28;20212;-62
2022/06/10 08:04:00;;;;;;;30.00;22.77;;;;;;;22.17;100.00;97586.16;5037597;28;20189;-64
2022/06/10 08:06:29;;;;;;;28.30;21.23;;;;;;;22.07;100.00;97588.34;5036259;28;20191;-61
2022/06/10 08:08:55;;;;;;;25.67;19.77;;;;;;;22.18;100.00;97587.78;5026691;28;20668;-62
2022/06/10 08:11:23;;;;;;;32.17;23.40;;;;;;;22.20;100.00;97595.50;5018222;28;20193;-62
2022/06/10 08:13:49;;;;;;;30.02;23.50;;;;;;;22.27;100.00;97580.53;5034465;28;20795;-61
2022/06/10 08:16:15;;;;;;;27.48;21.92;;;;;;;22.43;100.00;97596.00;5025961;28;20280;-63
2022/06/10 08:18:41;;;;;;;28.17;21.98;;;;;;;22.61;100.00;97596.25;5037256;28;20404;-63
2022/06/10 08:23:53;;;;;;;33.55;22.30;;;;;;;22.90;100.00;97585.34;5044812;28;20204;-63
2022/06/10 08:26:20;;;;;;;24.67;20.48;;;;;;;22.98;100.00;97585.97;5036538;28;20231;-62
2022/06/10 08:28:47;;;;;;;30.58;22.10;;;;;;;23.15;100.00;97602.19;5037889;28;20561;-66
2022/06/10 08:31:13;;;;;;;27.02;21.20;;;;;;;23.29;100.00;97601.19;5018858;28;20216;-63
2022/06/10 08:33:39;;;;;;;27.63;21.00;;;;;;;23.39;100.00;97589.22;5018184;28;20193;-64
2022/06/10 08:36:07;;;;;;;26.55;21.48;;;;;;;23.50;100.00;97590.44;5026898;28;20196;-63
2022/06/10 08:38:33;;;;;;;25.67;20.45;;;;;;;23.52;100.00;97601.59;5043705;28;20197;-64
2022/06/10 08:41:25;;;;;;;23.15;19.60;;;;;;;23.53;100.00;97608.53;5038338;28;20193;-63
2022/06/10 08:43:56;;;;;;;24.55;18.77;;;;;;;23.53;100.00;97611.97;5034606;28;20205;-62
2022/06/10 08:46:34;;;;;;;24.80;19.70;;;;;;;23.57;100.00;97607.91;5041117;28;20245;-62
2022/06/10 08:49:41;;;;;;;28.27;21.00;;;;;;;23.39;100.00;97613.00;5032839;28;20184;-62
2022/06/10 08:52:48;;;;;;;29.35;20.67;;;;;;;23.45;100.00;97620.09;5034650;28;20184;-62
2022/06/10 08:55:29;;;;;;;23.27;18.75;;;;;;;23.57;100.00;97605.25;5033263;28;20200;-62
2022/06/10 08:58:00;;;;;;;22.75;17.02;;;;;;;23.69;100.00;97607.03;5034260;28;20312;-62
2022/06/10 09:00:31;;;;;;;19.05;16.60;;;;;;;23.73;100.00;97607.47;5042098;28;20181;-61
2022/06/10 09:03:05;;;;;;;20.33;16.73;;;;;;;23.59;100.00;97607.69;5038976;28;20231;-61
2022/06/10 09:05:36;;;;;;;20.95;16.65;;;;;;;23.43;100.00;97610.75;5030921;28;20180;-61
2022/06/10 09:08:12;;;;;;;21.80;16.98;;;;;;;23.22;100.00;97606.50;5039662;28;20939;-61
2022/06/10 09:10:49;;;;;;;20.55;17.98;;;;;;;23.12;100.00;97607.88;5042444;28;20180;-62
2022/06/10 09:13:41;;;;;;;22.88;17.52;;;;;;;23.00;100.00;97599.75;5017395;28;20213;-63
2022/06/10 09:16:20;;;;;;;20.85;16.98;;;;;;;23.01;100.00;97595.31;5016728;28;20202;-61
2022/06/10 09:19:22;;;;;;;18.38;16.40;;;;;;;23.02;100.00;97591.66;5033686;28;20196;-61
2022/06/10 09:22:01;;;;;;;18.67;15.90;;;;;;;23.13;100.00;97583.13;5033756;28;20272;-60
2022/06/10 09:24:34;;;;;;;19.08;14.68;;;;;;;23.37;100.00;97585.16;5033992;28;20257;-61
2022/06/10 09:27:20;;;;;;;22.15;16.60;;;;;;;23.57;100.00;97591.22;5039504;28;20212;-60
2022/06/10 09:29:46;;;;;;;20.75;15.77;;;;;;;23.73;100.00;97588.97;5038789;28;20619;-61
2022/06/10 09:32:43;;;;;;;19.33;14.68;;;;;;;23.86;100.00;97595.00;5032201;28;20220;-61
2022/06/10 09:35:23;;;;;;;17.52;14.30;;;;;;;23.83;100.00;97582.22;5034481;28;20201;-61
2022/06/10 09:38:12;;;;;;;17.85;15.38;;;;;;;23.74;100.00;97594.03;5037538;28;20287;-61
2022/06/10 09:41:21;;;;;;;18.00;15.23;;;;;;;23.58;100.00;97591.03;5034621;28;20193;-60
2022/06/10 09:44:07;;;;;;;16.63;14.93;;;;;;;23.68;100.00;97578.22;5025996;28;20232;-60
2022/06/10 09:47:00;;;;;;;16.63;14.85;;;;;;;23.85;100.00;97574.91;5031999;28;20181;-60
2022/06/10 09:49:35;;;;;;;18.02;15.38;;;;;;;23.97;100.00;97576.94;5037454;28;20343;-60
2022/06/10 09:52:03;;;;;;;17.60;14.15;;;;;;;24.06;100.00;97581.75;5041976;28;20181;-60
2022/06/10 09:54:40;;;;;;;20.38;14.40;;;;;;;24.09;100.00;97581.38;5038296;28;20953;-60
2022/06/10 09:57:40;;;;;;;18.63;15.52;;;;;;;23.79;100.00;97578.38;5040097;28;20208;-60
2022/06/10 10:00:18;;;;;;;20.77;16.60;;;;;;;23.71;100.00;97577.00;5040976;28;20193;-60
2022/06/10 10:03:13;;;;;;;18.17;15.27;;;;;;;23.36;100.00;97578.28;5049866;28;20184;-60
2022/06/10 10:05:50;;;;;;;20.85;16.63;;;;;;;23.29;100.00;97574.81;5033213;28;20196;-62
2022/06/10 10:08:28;;;;;;;18.73;15.60;;;;;;;23.44;100.00;97576.22;5035572;28;20181;-62
2022/06/10 10:11:03;;;;;;;18.77;15.48;;;;;;;23.46;100.00;97568.09;5038932;28;21001;-61
2022/06/10 10:13:38;;;;;;;17.70;15.57;;;;;;;23.58;100.00;97572.53;5028787;28;20684;-62
2022/06/10 10:16:26;;;;;;;22.45;16.10;;;;;;;23.50;100.00;97574.59;5020873;28;20189;-61
2022/06/10 10:19:00;;;;;;;20.38;16.13;;;;;;;23.46;100.00;97576.81;5020426;28;20284;-62
2022/06/10 10:21:38;;;;;;;17.67;14.85;;;;;;;23.44;100.00;97570.13;5030800;28;20188;-61
2022/06/10 10:24:12;;;;;;;18.38;16.45;;;;;;;23.65;100.00;97569.88;5036479;28;20647;-62
2022/06/10 10:26:40;;;;;;;20.83;14.95;;;;;;;23.81;100.00;97571.03;5042092;28;20192;-61
2022/06/10 10:29:18;;;;;;;16.90;15.05;;;;;;;24.01;100.00;97573.66;5043787;28;20655;-62
2022/06/10 10:31:48;;;;;;;20.48;15.57;;;;;;;24.15;100.00;97578.66;5047844;28;20192;-62
2022/06/10 10:34:24;;;;;;;18.23;15.18;;;;;;;24.17;100.00;97579.28;5044204;28;20195;-62
2022/06/10 10:36:56;;;;;;;21.02;16.50;;;;;;;24.05;100.00;97572.22;5043090;28;20192;-62
2022/06/10 10:39:38;;;;;;;21.08;17.10;;;;;;;23.70;100.00;97560.31;5039402;28;20255;-62
2022/06/10 10:42:13;;;;;;;22.35;17.40;;;;;;;23.62;100.00;97583.50;5043847;28;20334;-62
2022/06/10 10:44:44;;;;;;;24.52;17.33;;;;;;;23.46;100.00;97568.91;5033291;28;20272;-62
2022/06/10 10:47:10;;;;;;;22.77;17.85;;;;;;;23.41;100.00;97570.53;5041974;28;20182;-61
2022/06/10 10:49:41;;;;;;;22.33;18.48;;;;;;;23.28;100.00;97565.25;5042434;28;20538;-62
2022/06/10 10:52:16;;;;;;;22.70;17.52;;;;;;;23.26;100.00;97562.81;5037285;28;20553;-62
2022/06/10 10:54:44;;;;;;;22.20;18.75;;;;;;;23.32;100.00;97561.22;5038026;28;20199;-61
2022/06/10 10:57:34;;;;;;;25.73;19.55;;;;;;;23.28;100.00;97555.53;5029465;28;20201;-62
2022/06/10 11:00:11;;;;;;;25.70;19.88;;;;;;;23.35;100.00;97558.16;5017993;28;20195;-62
2022/06/10 11:03:01;;;;;;;30.35;22.90;;;;;;;23.02;100.00;97552.06;5022388;28;20178;-62
2022/06/10 11:05:47;;;;;;;31.02;22.30;;;;;;;23.14;100.00;97556.50;5041057;28;20193;-62
2022/06/10 11:08:28;;;;;;;27.00;19.30;;;;;;;23.27;100.00;97545.16;5038775;28;20264;-62
2022/06/10 11:11:10;;;;;;;26.40;18.10;;;;;;;23.34;100.00;97548.59;5035495;28;20184;-61
2022/06/10 11:13:44;;;;;;;24.95;18.70;;;;;;;23.37;100.00;97558.78;5029557;28;20178;-60
2022/06/10 11:16:18;;;;;;;25.30;19.17;;;;;;;23.32;100.00;97548.81;5035291;28;20617;-61
2022/06/10 11:18:49;;;;;;;24.10;19.58;;;;;;;23.25;100.00;97544.56;5034713;28;20764;-62
2022/06/10 11:21:14;;;;;;;27.83;20.58;;;;;;;23.26;100.00;97541.69;5039143;28;20185;-63
2022/06/10 11:23:58;;;;;;;26.13;20.55;;;;;;;23.24;100.00;97542.94;5041071;28;20877;-62
2022/06/10 11:26:26;;;;;;;25.98;20.50;;;;;;;23.18;100.00;97535.81;5034761;28;20173;-61
2022/06/10 11:29:07;;;;;;;29.42;21.60;;;;;;;23.15;100.00;97537.03;5033707;28;20194;-61
2022/06/10 11:31:43;;;;;;;27.30;21.20;;;;;;;23.07;100.00;97534.59;5034902;28;20188;-62
2022/06/10 11:34:26;;;;;;;30.27;22.27;;;;;;;23.07;100.00;97525.88;5035413;28;20174;-61
2022/06/10 11:36:54;;;;;;;31.05;22.42;;;;;;;23.05;100.00;97515.53;5045621;28;20267;-61
2022/06/10 11:39:27;;;;;;;36.63;23.05;;;;;;;23.09;100.00;97537.03;5032057;28;20196;-62
2022/06/10 11:42:17;;;;;;;31.13;22.55;;;;;;;23.01;100.00;97524.06;5037324;28;20185;-62
2022/06/10 11:44:50;;;;;;;31.77;23.30;;;;;;;22.89;100.00;97538.88;5039140;28;20898;-62
2022/06/10 11:47:25;;;;;;;34.65;23.75;;;;;;;22.80;100.00;97562.00;5041832;28;20181;-62
2022/06/10 11:49:59;;;;;;;38.97;25.92;;;;;;;22.45;100.00;97580.81;5034357;28;20177;-62
2022/06/10 11:52:34;;;;;;;54.47;29.70;;;;;;;22.21;100.00;97608.47;5041716;28;20172;-61
2022/06/10 11:55:09;;;;;;;49.47;28.02;;;;;;;22.11;100.00;97575.59;5042631;28;20188;-61